sensor_id;sensor_type;location;lat;lon;timestamp;pressure;altitude;pressure_sealevel;temperature;humidity
32243;BME280;18731;42.830;24.390;2023-04-26T03:01:31;93551.84;;;8.81;84.42
32243;BME280;18731;42.830;24.390;2023-04-26T03:03:57;93532.69;;;8.75;84.80
32243;BME280;18731;42.830;24.390;2023-04-26T03:06:22;93538.63;;;8.84;84.50
32243;BME280;18731;42.830;24.390;2023-04-26T03:08:48;93543.41;;;8.79;84.10
32243;BME280;18731;42.830;24.390;2023-04-26T03:11:14;93548.97;;;8.74;84.70
32243;BME280;18731;42.830;24.390;2023-04-26T03:13:40;93544.88;;;8.76;85.18
32243;BME280;18731;42.830;24.390;2023-04-26T03:16:06;93544.88;;;8.76;85.49
32243;BME280;18731;42.830;24.390;2023-04-26T03:18:32;93549.81;;;8.62;85.33
32243;BME280;18731;42.830;24.390;2023-04-26T03:20:57;93540.63;;;8.59;85.11
32243;BME280;18731;42.830;24.390;2023-04-26T03:23:23;93531.84;;;8.59;85.05
32243;BME280;18731;42.830;24.390;2023-04-26T03:25:50;93532.72;;;8.63;85.12
32243;BME280;18731;42.830;24.390;2023-04-26T03:28:16;93543.56;;;8.70;84.78
32243;BME280;18731;42.830;24.390;2023-04-26T03:30:41;93546.38;;;8.61;85.24
32243;BME280;18731;42.830;24.390;2023-04-26T03:33:07;93550.78;;;8.69;85.18
32243;BME280;18731;42.830;24.390;2023-04-26T03:35:32;93557.53;;;8.67;84.91
32243;BME280;18731;42.830;24.390;2023-04-26T03:37:58;93552.25;;;8.55;85.00
32243;BME280;18731;42.830;24.390;2023-04-26T03:40:24;93557.16;;;8.53;85.06
32243;BME280;18731;42.830;24.390;2023-04-26T03:42:50;93557.81;;;8.50;85.52
32243;BME280;18731;42.830;24.390;2023-04-26T03:45:16;93573.88;;;8.53;86.11
32243;BME280;18731;42.830;24.390;2023-04-26T03:47:41;93579.28;;;8.57;86.09
32243;BME280;18731;42.830;24.390;2023-04-26T03:50:07;93577.75;;;8.56;86.10
32243;BME280;18731;42.830;24.390;2023-04-26T03:52:33;93570.41;;;8.65;86.28
32243;BME280;18731;42.830;24.390;2023-04-26T03:54:58;93565.28;;;8.72;86.88
32243;BME280;18731;42.830;24.390;2023-04-26T03:57:24;93548.25;;;8.61;90.34
32243;BME280;18731;42.830;24.390;2023-04-26T03:59:49;93553.66;;;8.64;87.94
32243;BME280;18731;42.830;24.390;2023-04-26T04:02:15;93549.41;;;8.76;86.70
32243;BME280;18731;42.830;24.390;2023-04-26T04:04:40;93555.72;;;8.83;85.93
32243;BME280;18731;42.830;24.390;2023-04-26T04:07:06;93557.75;;;8.74;86.43
32243;BME280;18731;42.830;24.390;2023-04-26T04:09:32;93554.41;;;8.77;85.50
32243;BME280;18731;42.830;24.390;2023-04-26T04:11:57;93571.72;;;8.71;85.06
32243;BME280;18731;42.830;24.390;2023-04-26T04:14:23;93565.03;;;8.77;85.21
32243;BME280;18731;42.830;24.390;2023-04-26T04:16:48;93550.78;;;8.69;85.98
32243;BME280;18731;42.830;24.390;2023-04-26T04:19:15;93557.31;;;8.72;85.89
32243;BME280;18731;42.830;24.390;2023-04-26T04:21:41;93524.66;;;8.59;85.29
32243;BME280;18731;42.830;24.390;2023-04-26T04:24:07;93552.53;;;8.78;84.79
32243;BME280;18731;42.830;24.390;2023-04-26T04:26:33;93549.63;;;8.83;84.44
32243;BME280;18731;42.830;24.390;2023-04-26T04:28:58;93545.84;;;8.84;84.14
32243;BME280;18731;42.830;24.390;2023-04-26T04:31:34;93549.72;;;8.86;84.25
32243;BME280;18731;42.830;24.390;2023-04-26T04:33:59;93555.22;;;8.93;84.00
32243;BME280;18731;42.830;24.390;2023-04-26T04:36:25;93555.91;;;8.90;83.33
32243;BME280;18731;42.830;24.390;2023-04-26T04:38:51;93551.00;;;8.92;83.01
32243;BME280;18731;42.830;24.390;2023-04-26T04:41:17;93551.81;;;9.09;83.24
32243;BME280;18731;42.830;24.390;2023-04-26T04:43:44;93544.94;;;9.08;83.08
32243;BME280;18731;42.830;24.390;2023-04-26T04:46:10;93555.78;;;9.15;82.32
32243;BME280;18731;42.830;24.390;2023-04-26T04:48:36;93556.13;;;9.13;82.01
32243;BME280;18731;42.830;24.390;2023-04-26T04:51:03;93556.03;;;9.10;81.85
32243;BME280;18731;42.830;24.390;2023-04-26T04:53:29;93562.03;;;9.07;81.76
32243;BME280;18731;42.830;24.390;2023-04-26T04:55:55;93561.50;;;9.01;81.89
32243;BME280;18731;42.830;24.390;2023-04-26T04:58:21;93557.63;;;8.98;82.54
32243;BME280;18731;42.830;24.390;2023-04-26T05:00:47;93548.06;;;9.25;82.72
32243;BME280;18731;42.830;24.390;2023-04-26T05:03:13;93562.88;;;9.54;82.86
32243;BME280;18731;42.830;24.390;2023-04-26T05:05:39;93563.03;;;9.77;82.58
32243;BME280;18731;42.830;24.390;2023-04-26T05:08:05;93567.84;;;10.03;81.66
32243;BME280;18731;42.830;24.390;2023-04-26T05:10:33;93571.44;;;10.26;81.84
32243;BME280;18731;42.830;24.390;2023-04-26T05:13:00;93557.25;;;10.22;80.38
32243;BME280;18731;42.830;24.390;2023-04-26T05:15:26;93562.03;;;10.32;80.17
32243;BME280;18731;42.830;24.390;2023-04-26T05:17:51;93563.78;;;10.41;80.23
32243;BME280;18731;42.830;24.390;2023-04-26T05:20:19;93557.91;;;10.51;79.55
32243;BME280;18731;42.830;24.390;2023-04-26T05:22:45;93555.72;;;10.56;79.47
32243;BME280;18731;42.830;24.390;2023-04-26T05:25:11;93554.97;;;10.94;79.04
32243;BME280;18731;42.830;24.390;2023-04-26T05:27:38;93557.75;;;11.02;77.21
32243;BME280;18731;42.830;24.390;2023-04-26T05:30:05;93561.69;;;11.08;76.13
32243;BME280;18731;42.830;24.390;2023-04-26T05:32:30;93556.41;;;11.31;75.91
32243;BME280;18731;42.830;24.390;2023-04-26T05:34:57;93557.91;;;11.51;75.99
32243;BME280;18731;42.830;24.390;2023-04-26T05:37:22;93561.75;;;11.53;73.64
32243;BME280;18731;42.830;24.390;2023-04-26T05:39:48;93547.84;;;11.44;73.85
32243;BME280;18731;42.830;24.390;2023-04-26T05:42:14;93564.66;;;11.45;72.89
32243;BME280;18731;42.830;24.390;2023-04-26T05:44:40;93567.69;;;11.43;72.23
32243;BME280;18731;42.830;24.390;2023-04-26T05:47:07;93564.34;;;11.27;72.53
32243;BME280;18731;42.830;24.390;2023-04-26T05:49:33;93566.34;;;11.11;73.97
32243;BME280;18731;42.830;24.390;2023-04-26T05:51:58;93557.97;;;11.12;74.46
32243;BME280;18731;42.830;24.390;2023-04-26T05:54:28;93571.19;;;11.05;75.46
32243;BME280;18731;42.830;24.390;2023-04-26T05:56:53;93557.00;;;11.01;76.93
32243;BME280;18731;42.830;24.390;2023-04-26T05:59:19;93544.78;;;11.00;75.91
32243;BME280;18731;42.830;24.390;2023-04-26T06:01:45;93566.03;;;11.16;74.56
32243;BME280;18731;42.830;24.390;2023-04-26T06:04:11;93579.53;;;11.23;74.76
32243;BME280;18731;42.830;24.390;2023-04-26T06:06:36;93575.03;;;11.27;74.67
32243;BME280;18731;42.830;24.390;2023-04-26T06:09:03;93579.59;;;11.26;75.50
32243;BME280;18731;42.830;24.390;2023-04-26T06:11:29;93578.25;;;11.36;74.06
32243;BME280;18731;42.830;24.390;2023-04-26T06:13:55;93570.72;;;11.42;72.80
32243;BME280;18731;42.830;24.390;2023-04-26T06:16:21;93582.72;;;11.51;73.69
32243;BME280;18731;42.830;24.390;2023-04-26T06:18:47;93574.13;;;11.62;73.86
32243;BME280;18731;42.830;24.390;2023-04-26T06:21:12;93581.06;;;11.66;76.10
32243;BME280;18731;42.830;24.390;2023-04-26T06:23:38;93579.97;;;11.90;73.55
32243;BME280;18731;42.830;24.390;2023-04-26T06:26:03;93586.38;;;12.08;71.57
32243;BME280;18731;42.830;24.390;2023-04-26T06:28:29;93571.56;;;12.14;71.12
32243;BME280;18731;42.830;24.390;2023-04-26T06:30:55;93578.13;;;12.47;69.59
32243;BME280;18731;42.830;24.390;2023-04-26T06:33:20;93577.09;;;12.55;69.31
32243;BME280;18731;42.830;24.390;2023-04-26T06:35:46;93573.03;;;12.65;68.73
32243;BME280;18731;42.830;24.390;2023-04-26T06:38:11;93560.31;;;12.58;69.19
32243;BME280;18731;42.830;24.390;2023-04-26T06:40:37;93575.13;;;12.78;70.01
32243;BME280;18731;42.830;24.390;2023-04-26T06:43:03;93569.94;;;12.93;70.14
32243;BME280;18731;42.830;24.390;2023-04-26T06:45:29;93565.50;;;13.04;69.83
32243;BME280;18731;42.830;24.390;2023-04-26T06:47:55;93563.91;;;12.99;69.12
32243;BME280;18731;42.830;24.390;2023-04-26T06:50:21;93564.94;;;13.17;69.63
32243;BME280;18731;42.830;24.390;2023-04-26T06:52:47;93555.38;;;13.57;65.01
32243;BME280;18731;42.830;24.390;2023-04-26T06:55:12;93559.38;;;13.74;64.21
32243;BME280;18731;42.830;24.390;2023-04-26T06:57:38;93552.69;;;14.01;64.93
32243;BME280;18731;42.830;24.390;2023-04-26T07:00:04;93564.03;;;14.32;60.53
32243;BME280;18731;42.830;24.390;2023-04-26T07:02:30;93567.59;;;14.43;57.32
32243;BME280;18731;42.830;24.390;2023-04-26T07:04:56;93554.50;;;14.41;55.62
32243;BME280;18731;42.830;24.390;2023-04-26T07:07:21;93563.84;;;14.58;55.75
32243;BME280;18731;42.830;24.390;2023-04-26T07:09:48;93568.56;;;14.83;54.33
32243;BME280;18731;42.830;24.390;2023-04-26T07:12:14;93561.13;;;14.55;54.17
32243;BME280;18731;42.830;24.390;2023-04-26T07:14:39;93559.94;;;14.48;56.55
32243;BME280;18731;42.830;24.390;2023-04-26T07:17:08;93571.25;;;14.24;57.76
32243;BME280;18731;42.830;24.390;2023-04-26T07:19:34;93560.56;;;14.28;58.14
32243;BME280;18731;42.830;24.390;2023-04-26T07:22:00;93575.28;;;14.48;58.64
32243;BME280;18731;42.830;24.390;2023-04-26T07:24:26;93563.63;;;14.30;56.77
32243;BME280;18731;42.830;24.390;2023-04-26T07:26:51;93568.44;;;14.06;56.29
32243;BME280;18731;42.830;24.390;2023-04-26T07:29:17;93562.31;;;14.06;58.24
32243;BME280;18731;42.830;24.390;2023-04-26T07:31:43;93563.84;;;14.58;56.56
32243;BME280;18731;42.830;24.390;2023-04-26T07:34:09;93566.44;;;15.20;58.21
32243;BME280;18731;42.830;24.390;2023-04-26T07:36:35;93547.31;;;15.54;50.34
32243;BME280;18731;42.830;24.390;2023-04-26T07:39:00;93559.69;;;15.69;51.36
32243;BME280;18731;42.830;24.390;2023-04-26T07:41:26;93555.47;;;15.75;49.68
32243;BME280;18731;42.830;24.390;2023-04-26T07:43:52;93562.81;;;16.06;49.46
32243;BME280;18731;42.830;24.390;2023-04-26T07:46:18;93556.25;;;16.07;48.01
32243;BME280;18731;42.830;24.390;2023-04-26T07:48:44;93562.03;;;16.13;46.67
32243;BME280;18731;42.830;24.390;2023-04-26T07:51:10;93557.78;;;16.37;47.07
32243;BME280;18731;42.830;24.390;2023-04-26T07:53:38;93552.00;;;16.70;48.58
32243;BME280;18731;42.830;24.390;2023-04-26T07:56:05;93551.88;;;17.06;45.18
32243;BME280;18731;42.830;24.390;2023-04-26T07:58:33;93553.91;;;17.68;44.49
32243;BME280;18731;42.830;24.390;2023-04-26T08:00:59;93539.34;;;17.48;43.90
32243;BME280;18731;42.830;24.390;2023-04-26T08:03:25;93549.91;;;17.90;47.51
32243;BME280;18731;42.830;24.390;2023-04-26T08:05:54;93534.28;;;18.16;41.92
32243;BME280;18731;42.830;24.390;2023-04-26T08:08:21;93551.28;;;18.13;41.91
32243;BME280;18731;42.830;24.390;2023-04-26T08:10:47;93555.84;;;18.19;40.82
32243;BME280;18731;42.830;24.390;2023-04-26T08:13:12;93544.69;;;18.21;42.22
32243;BME280;18731;42.830;24.390;2023-04-26T08:15:38;93547.16;;;18.46;42.30
32243;BME280;18731;42.830;24.390;2023-04-26T08:18:05;93538.69;;;17.95;41.71
32243;BME280;18731;42.830;24.390;2023-04-26T08:20:30;93547.81;;;17.53;42.00
32243;BME280;18731;42.830;24.390;2023-04-26T08:22:59;93557.25;;;17.13;41.60
32243;BME280;18731;42.830;24.390;2023-04-26T08:25:25;93505.31;;;16.98;43.38
32243;BME280;18731;42.830;24.390;2023-04-26T08:27:50;93537.19;;;17.21;40.79
32243;BME280;18731;42.830;24.390;2023-04-26T08:30:17;93537.72;;;17.68;43.12
32243;BME280;18731;42.830;24.390;2023-04-26T08:32:43;93535.69;;;18.35;43.47
32243;BME280;18731;42.830;24.390;2023-04-26T08:35:10;93538.94;;;18.60;41.96
32243;BME280;18731;42.830;24.390;2023-04-26T08:37:35;93535.81;;;18.20;36.86
32243;BME280;18731;42.830;24.390;2023-04-26T08:40:03;93537.56;;;17.23;37.21
32243;BME280;18731;42.830;24.390;2023-04-26T08:42:30;93556.22;;;16.68;40.14
32243;BME280;18731;42.830;24.390;2023-04-26T08:44:59;93543.91;;;16.63;40.13
32243;BME280;18731;42.830;24.390;2023-04-26T08:47:43;93548.53;;;16.52;40.04
32243;BME280;18731;42.830;24.390;2023-04-26T08:50:14;93542.81;;;16.22;41.96
32243;BME280;18731;42.830;24.390;2023-04-26T08:52:41;93531.28;;;16.07;42.71
32243;BME280;18731;42.830;24.390;2023-04-26T08:55:08;93548.19;;;15.72;41.10
32243;BME280;18731;42.830;24.390;2023-04-26T08:57:35;93549.31;;;15.64;44.52
32243;BME280;18731;42.830;24.390;2023-04-26T09:00:03;93535.09;;;15.70;44.92
32243;BME280;18731;42.830;24.390;2023-04-26T09:02:30;93538.97;;;16.16;46.63
32243;BME280;18731;42.830;24.390;2023-04-26T09:04:56;93529.72;;;16.31;43.50
32243;BME280;18731;42.830;24.390;2023-04-26T09:07:31;93536.66;;;15.79;40.75
32243;BME280;18731;42.830;24.390;2023-04-26T09:09:58;93535.78;;;15.42;41.59
32243;BME280;18731;42.830;24.390;2023-04-26T09:12:25;93551.06;;;15.21;42.67
32243;BME280;18731;42.830;24.390;2023-04-26T09:14:51;93540.25;;;15.03;43.26
32243;BME280;18731;42.830;24.390;2023-04-26T09:19:53;93546.88;;;15.30;43.36
32243;BME280;18731;42.830;24.390;2023-04-26T09:24:54;93532.81;;;15.76;44.41
32243;BME280;18731;42.830;24.390;2023-04-26T09:27:20;93551.28;;;15.95;45.69
32243;BME280;18731;42.830;24.390;2023-04-26T09:30:13;93557.78;;;15.80;43.79
32243;BME280;18731;42.830;24.390;2023-04-26T09:32:47;93543.88;;;15.53;44.06
32243;BME280;18731;42.830;24.390;2023-04-26T09:35:26;93555.09;;;15.66;43.72
32243;BME280;18731;42.830;24.390;2023-04-26T09:38:00;93557.38;;;15.67;44.87
32243;BME280;18731;42.830;24.390;2023-04-26T09:40:31;93563.41;;;15.39;45.42
32243;BME280;18731;42.830;24.390;2023-04-26T09:43:02;93558.72;;;15.08;46.02
32243;BME280;18731;42.830;24.390;2023-04-26T09:45:30;93548.72;;;15.05;46.18
32243;BME280;18731;42.830;24.390;2023-04-26T09:48:21;93554.91;;;15.16;46.04
32243;BME280;18731;42.830;24.390;2023-04-26T09:50:50;93550.13;;;14.77;45.63
32243;BME280;18731;42.830;24.390;2023-04-26T09:53:39;93553.16;;;14.65;44.84
32243;BME280;18731;42.830;24.390;2023-04-26T09:58:37;93562.88;;;14.91;44.89
32243;BME280;18731;42.830;24.390;2023-04-26T10:01:03;93557.66;;;15.34;43.59
32243;BME280;18731;42.830;24.390;2023-04-26T10:03:33;93556.88;;;15.37;43.89
32243;BME280;18731;42.830;24.390;2023-04-26T10:05:58;93552.91;;;14.95;43.78
32243;BME280;18731;42.830;24.390;2023-04-26T10:08:24;93543.16;;;14.66;43.20
32243;BME280;18731;42.830;24.390;2023-04-26T10:10:50;93548.41;;;14.44;44.25
32243;BME280;18731;42.830;24.390;2023-04-26T10:13:18;93545.81;;;14.59;42.95
32243;BME280;18731;42.830;24.390;2023-04-26T10:15:43;93531.22;;;14.56;43.32
32243;BME280;18731;42.830;24.390;2023-04-26T10:18:10;93538.47;;;14.45;43.81
32243;BME280;18731;42.830;24.390;2023-04-26T10:20:39;93536.16;;;14.43;44.29
32243;BME280;18731;42.830;24.390;2023-04-26T10:23:19;93540.19;;;14.82;43.66
32243;BME280;18731;42.830;24.390;2023-04-26T10:25:46;93553.22;;;14.79;42.82
32243;BME280;18731;42.830;24.390;2023-04-26T10:28:12;93543.13;;;14.55;40.69
32243;BME280;18731;42.830;24.390;2023-04-26T10:30:55;93557.28;;;14.52;42.31
32243;BME280;18731;42.830;24.390;2023-04-26T10:33:22;93558.28;;;14.33;43.42
32243;BME280;18731;42.830;24.390;2023-04-26T10:36:27;93545.53;;;14.78;46.74
32243;BME280;18731;42.830;24.390;2023-04-26T10:39:18;93549.03;;;14.86;43.39
32243;BME280;18731;42.830;24.390;2023-04-26T10:41:47;93536.31;;;14.75;42.64
32243;BME280;18731;42.830;24.390;2023-04-26T10:47:05;93536.09;;;15.20;41.00
32243;BME280;18731;42.830;24.390;2023-04-26T10:49:43;93547.06;;;14.75;40.02
32243;BME280;18731;42.830;24.390;2023-04-26T10:52:19;93545.50;;;14.71;41.84
32243;BME280;18731;42.830;24.390;2023-04-26T10:54:51;93525.66;;;15.00;43.15
32243;BME280;18731;42.830;24.390;2023-04-26T10:57:18;93546.38;;;14.96;41.48
32243;BME280;18731;42.830;24.390;2023-04-26T11:02:44;93544.84;;;14.30;43.11
32243;BME280;18731;42.830;24.390;2023-04-26T11:10:41;93548.22;;;13.31;43.83
32243;BME280;18731;42.830;24.390;2023-04-26T11:13:07;93561.31;;;13.36;44.15
32243;BME280;18731;42.830;24.390;2023-04-26T11:15:33;93563.66;;;13.41;44.65
32243;BME280;18731;42.830;24.390;2023-04-26T11:18:03;93563.59;;;13.34;44.46
32243;BME280;18731;42.830;24.390;2023-04-26T11:20:30;93567.09;;;13.42;42.13
32243;BME280;18731;42.830;24.390;2023-04-26T11:22:57;93556.09;;;13.50;43.53
32243;BME280;18731;42.830;24.390;2023-04-26T11:25:27;93556.75;;;13.40;42.35
32243;BME280;18731;42.830;24.390;2023-04-26T11:27:58;93565.94;;;13.39;42.04
32243;BME280;18731;42.830;24.390;2023-04-26T11:30:24;93566.16;;;13.64;41.42
32243;BME280;18731;42.830;24.390;2023-04-26T11:32:49;93568.47;;;13.66;40.85
32243;BME280;18731;42.830;24.390;2023-04-26T11:35:15;93564.38;;;13.79;40.03
32243;BME280;18731;42.830;24.390;2023-04-26T11:37:41;93559.53;;;13.95;41.07
32243;BME280;18731;42.830;24.390;2023-04-26T11:40:10;93571.22;;;14.17;40.96
32243;BME280;18731;42.830;24.390;2023-04-26T11:42:36;93564.72;;;14.22;42.50
32243;BME280;18731;42.830;24.390;2023-04-26T11:45:01;93563.13;;;14.13;42.31
32243;BME280;18731;42.830;24.390;2023-04-26T11:47:32;93573.47;;;14.11;42.73
32243;BME280;18731;42.830;24.390;2023-04-26T11:49:58;93577.63;;;14.05;41.72
32243;BME280;18731;42.830;24.390;2023-04-26T11:52:25;93566.84;;;13.98;42.92
32243;BME280;18731;42.830;24.390;2023-04-26T11:55:06;93574.84;;;13.91;40.76
32243;BME280;18731;42.830;24.390;2023-04-26T11:57:33;93577.13;;;13.89;40.42
32243;BME280;18731;42.830;24.390;2023-04-26T12:00:14;93561.78;;;13.86;42.39
32243;BME280;18731;42.830;24.390;2023-04-26T12:02:44;93561.47;;;13.95;42.20
32243;BME280;18731;42.830;24.390;2023-04-26T12:05:22;93570.41;;;14.13;40.61
32243;BME280;18731;42.830;24.390;2023-04-26T12:07:53;93570.16;;;14.32;42.10
32243;BME280;18731;42.830;24.390;2023-04-26T12:10:24;93570.84;;;14.73;40.90
32243;BME280;18731;42.830;24.390;2023-04-26T12:12:52;93572.97;;;15.19;40.24
32243;BME280;18731;42.830;24.390;2023-04-26T12:15:23;93569.56;;;15.40;40.19
32243;BME280;18731;42.830;24.390;2023-04-26T12:18:06;93565.81;;;15.59;40.40
32243;BME280;18731;42.830;24.390;2023-04-26T12:20:34;93571.22;;;15.62;39.93
32243;BME280;18731;42.830;24.390;2023-04-26T12:23:05;93574.91;;;15.26;40.50
32243;BME280;18731;42.830;24.390;2023-04-26T12:25:33;93557.09;;;14.86;41.09
32243;BME280;18731;42.830;24.390;2023-04-26T12:27:59;93575.72;;;14.57;41.73
32243;BME280;18731;42.830;24.390;2023-04-26T12:30:27;93573.53;;;14.19;41.65
32243;BME280;18731;42.830;24.390;2023-04-26T12:32:53;93571.81;;;13.96;43.79
32243;BME280;18731;42.830;24.390;2023-04-26T12:35:21;93570.66;;;13.94;44.26
32243;BME280;18731;42.830;24.390;2023-04-26T12:37:48;93573.19;;;13.76;42.52
32243;BME280;18731;42.830;24.390;2023-04-26T12:40:14;93557.03;;;13.69;42.88
32243;BME280;18731;42.830;24.390;2023-04-26T12:42:40;93570.63;;;13.49;43.00
32243;BME280;18731;42.830;24.390;2023-04-26T12:45:06;93560.84;;;13.68;43.48
32243;BME280;18731;42.830;24.390;2023-04-26T12:47:33;93580.44;;;13.75;43.59
32243;BME280;18731;42.830;24.390;2023-04-26T12:49:59;93563.00;;;13.96;43.92
32243;BME280;18731;42.830;24.390;2023-04-26T12:52:26;93568.59;;;14.28;43.93
32243;BME280;18731;42.830;24.390;2023-04-26T12:54:52;93582.84;;;14.35;45.09
32243;BME280;18731;42.830;24.390;2023-04-26T12:57:19;93579.03;;;14.40;43.90
32243;BME280;18731;42.830;24.390;2023-04-26T12:59:46;93574.28;;;14.15;42.85
32243;BME280;18731;42.830;24.390;2023-04-26T13:02:12;93582.06;;;14.35;42.56
32243;BME280;18731;42.830;24.390;2023-04-26T13:04:37;93570.16;;;14.32;41.10
32243;BME280;18731;42.830;24.390;2023-04-26T13:07:04;93572.88;;;14.36;42.26
32243;BME280;18731;42.830;24.390;2023-04-26T13:09:29;93574.72;;;14.25;42.01
32243;BME280;18731;42.830;24.390;2023-04-26T13:11:55;93579.97;;;14.10;42.73
32243;BME280;18731;42.830;24.390;2023-04-26T13:14:20;93570.28;;;13.95;43.09
32243;BME280;18731;42.830;24.390;2023-04-26T13:16:49;93568.59;;;13.76;43.42
32243;BME280;18731;42.830;24.390;2023-04-26T13:19:16;93573.84;;;13.66;43.43
32243;BME280;18731;42.830;24.390;2023-04-26T13:21:42;93582.28;;;13.68;43.44
32243;BME280;18731;42.830;24.390;2023-04-26T13:24:08;93588.88;;;13.74;44.15
32243;BME280;18731;42.830;24.390;2023-04-26T13:26:34;93584.09;;;13.97;44.38
32243;BME280;18731;42.830;24.390;2023-04-26T13:28:59;93595.13;;;13.89;42.57
32243;BME280;18731;42.830;24.390;2023-04-26T13:31:26;93580.88;;;14.29;45.12
32243;BME280;18731;42.830;24.390;2023-04-26T13:33:51;93574.03;;;14.35;42.50
32243;BME280;18731;42.830;24.390;2023-04-26T13:36:17;93585.81;;;14.20;43.28
32243;BME280;18731;42.830;24.390;2023-04-26T13:38:43;93578.72;;;13.97;42.92
32243;BME280;18731;42.830;24.390;2023-04-26T13:41:09;93599.72;;;13.47;43.72
32243;BME280;18731;42.830;24.390;2023-04-26T13:43:35;93597.19;;;13.28;45.12
32243;BME280;18731;42.830;24.390;2023-04-26T13:46:01;93603.78;;;13.04;46.23
32243;BME280;18731;42.830;24.390;2023-04-26T13:48:27;93595.22;;;12.95;45.05
32243;BME280;18731;42.830;24.390;2023-04-26T13:50:52;93604.34;;;12.91;45.73
32243;BME280;18731;42.830;24.390;2023-04-26T13:53:20;93602.50;;;12.95;46.60
32243;BME280;18731;42.830;24.390;2023-04-26T13:55:47;93596.75;;;12.96;46.16
32243;BME280;18731;42.830;24.390;2023-04-26T13:58:13;93613.94;;;13.18;45.62
32243;BME280;18731;42.830;24.390;2023-04-26T14:00:39;93597.94;;;13.25;45.18
32243;BME280;18731;42.830;24.390;2023-04-26T14:03:05;93605.75;;;13.41;44.25
32243;BME280;18731;42.830;24.390;2023-04-26T14:05:30;93611.91;;;13.41;44.67
32243;BME280;18731;42.830;24.390;2023-04-26T14:07:56;93611.66;;;13.54;44.75
32243;BME280;18731;42.830;24.390;2023-04-26T14:10:23;93616.88;;;13.43;45.36
32243;BME280;18731;42.830;24.390;2023-04-26T14:12:48;93571.84;;;12.92;45.11
32243;BME280;18731;42.830;24.390;2023-04-26T14:15:14;93625.34;;;13.15;45.93
32243;BME280;18731;42.830;24.390;2023-04-26T14:17:40;93626.59;;;13.21;46.63
32243;BME280;18731;42.830;24.390;2023-04-26T14:20:07;93627.63;;;13.13;46.50
32243;BME280;18731;42.830;24.390;2023-04-26T14:22:34;93631.94;;;12.95;46.80
32243;BME280;18731;42.830;24.390;2023-04-26T14:25:00;93633.72;;;12.83;47.25
32243;BME280;18731;42.830;24.390;2023-04-26T14:27:25;93637.94;;;12.84;47.32
32243;BME280;18731;42.830;24.390;2023-04-26T14:29:51;93638.25;;;12.79;47.12
32243;BME280;18731;42.830;24.390;2023-04-26T14:32:17;93637.53;;;12.82;47.08
32243;BME280;18731;42.830;24.390;2023-04-26T14:34:43;93616.31;;;12.70;47.33
32243;BME280;18731;42.830;24.390;2023-04-26T14:37:09;93627.59;;;12.83;46.72
32243;BME280;18731;42.830;24.390;2023-04-26T14:39:34;93591.09;;;12.71;46.14
32243;BME280;18731;42.830;24.390;2023-04-26T14:42:02;93634.31;;;13.00;45.96
32243;BME280;18731;42.830;24.390;2023-04-26T14:44:28;93632.66;;;12.92;45.96
32243;BME280;18731;42.830;24.390;2023-04-26T14:46:58;93642.09;;;12.82;46.81
32243;BME280;18731;42.830;24.390;2023-04-26T14:49:24;93642.56;;;12.87;46.54
32243;BME280;18731;42.830;24.390;2023-04-26T14:51:50;93651.53;;;12.72;46.60
32243;BME280;18731;42.830;24.390;2023-04-26T14:54:16;93652.25;;;12.69;47.12
32243;BME280;18731;42.830;24.390;2023-04-26T14:56:42;93654.63;;;12.48;47.99
32243;BME280;18731;42.830;24.390;2023-04-26T14:59:08;93657.41;;;12.55;47.44
32243;BME280;18731;42.830;24.390;2023-04-26T15:01:33;93665.63;;;12.43;47.70
32243;BME280;18731;42.830;24.390;2023-04-26T15:03:59;93661.09;;;12.47;48.05
32243;BME280;18731;42.830;24.390;2023-04-26T15:06:25;93659.16;;;12.44;48.65
32243;BME280;18731;42.830;24.390;2023-04-26T15:08:51;93668.66;;;12.41;47.98
32243;BME280;18731;42.830;24.390;2023-04-26T15:11:17;93677.06;;;12.40;48.34
32243;BME280;18731;42.830;24.390;2023-04-26T15:13:42;93672.94;;;12.46;48.91
32243;BME280;18731;42.830;24.390;2023-04-26T15:16:08;93683.19;;;12.40;47.78
32243;BME280;18731;42.830;24.390;2023-04-26T15:18:33;93676.22;;;12.36;47.97
32243;BME280;18731;42.830;24.390;2023-04-26T15:20:59;93686.88;;;12.32;48.19
32243;BME280;18731;42.830;24.390;2023-04-26T15:23:25;93678.47;;;12.34;48.27
32243;BME280;18731;42.830;24.390;2023-04-26T15:25:51;93681.28;;;12.41;49.03
32243;BME280;18731;42.830;24.390;2023-04-26T15:28:16;93688.81;;;12.35;48.05
32243;BME280;18731;42.830;24.390;2023-04-26T15:30:42;93695.25;;;12.31;48.08
32243;BME280;18731;42.830;24.390;2023-04-26T15:33:08;93693.53;;;12.19;47.99
32243;BME280;18731;42.830;24.390;2023-04-26T15:35:34;93681.09;;;12.07;48.39
32243;BME280;18731;42.830;24.390;2023-04-26T15:38:00;93683.47;;;12.12;49.34
32243;BME280;18731;42.830;24.390;2023-04-26T15:40:26;93689.53;;;12.09;48.45
32243;BME280;18731;42.830;24.390;2023-04-26T15:42:52;93700.59;;;12.08;49.12
32243;BME280;18731;42.830;24.390;2023-04-26T15:45:19;93698.81;;;12.15;48.73
32243;BME280;18731;42.830;24.390;2023-04-26T15:47:45;93690.78;;;12.15;48.95
32243;BME280;18731;42.830;24.390;2023-04-26T15:50:11;93699.78;;;12.27;48.50
32243;BME280;18731;42.830;24.390;2023-04-26T15:52:37;93692.94;;;12.06;48.77
32243;BME280;18731;42.830;24.390;2023-04-26T15:55:04;93695.59;;;12.06;48.81
32243;BME280;18731;42.830;24.390;2023-04-26T15:57:33;93709.69;;;12.03;48.11
32243;BME280;18731;42.830;24.390;2023-04-26T15:59:59;93703.09;;;11.97;48.26
32243;BME280;18731;42.830;24.390;2023-04-26T16:02:25;93717.59;;;11.96;48.45
32243;BME280;18731;42.830;24.390;2023-04-26T16:04:50;93713.28;;;11.91;48.39
32243;BME280;18731;42.830;24.390;2023-04-26T16:07:17;93705.75;;;11.97;48.36
32243;BME280;18731;42.830;24.390;2023-04-26T16:09:42;93706.06;;;11.92;48.44
32243;BME280;18731;42.830;24.390;2023-04-26T16:12:09;93707.47;;;11.86;49.56